Time;durP1;ratioP1;P1;durP2;ratioP2;P2;SDS_P1;SDS_P2;PMS_P1;PMS_P2;Temp;Humidity;BMP_temperature;BMP_pressure;BME280_temperature;BME280_humidity;BME280_pressure;Samples;Min_cycle;Max_cycle;Signal;HPM_P1;HPM_P2
2020/12/05 00:01:52;;;;;;;48.38;24.00;;;1.60;99.90;;;;;;5027165;28;20400;-43
2020/12/05 00:04:17;;;;;;;59.20;29.83;;;1.60;99.90;;;;;;5013972;28;20033;-43
2020/12/05 00:06:43;;;;;;;60.42;30.48;;;1.60;99.90;;;;;;5018776;28;20118;-41
2020/12/05 00:09:09;;;;;;;58.42;29.40;;;1.70;99.90;;;;;;5019947;28;20076;-40
2020/12/05 00:11:34;;;;;;;55.90;31.73;;;1.70;99.90;;;;;;5028623;28;20026;-41
2020/12/05 00:14:00;;;;;;;58.47;30.58;;;1.70;99.90;;;;;;5029712;28;20381;-41
2020/12/05 00:16:26;;;;;;;48.05;25.02;;;1.80;99.90;;;;;;5028889;28;20033;-40
2020/12/05 00:18:54;;;;;;;46.03;22.55;;;1.80;99.90;;;;;;5010987;28;20516;-41
2020/12/05 00:21:24;;;;;;;47.95;23.55;;;1.80;99.90;;;;;;5017247;28;20508;-40
2020/12/05 00:23:52;;;;;;;45.22;23.17;;;1.70;99.90;;;;;;5013083;28;20034;-42
2020/12/05 00:26:21;;;;;;;46.90;25.30;;;1.70;99.90;;;;;;5019777;28;20054;-40
2020/12/05 00:28:47;;;;;;;44.67;22.98;;;1.70;99.90;;;;;;5021136;28;20490;-41
2020/12/05 00:31:16;;;;;;;58.58;29.98;;;1.60;99.90;;;;;;5013707;28;20033;-41
2020/12/05 00:33:42;;;;;;;58.92;28.92;;;1.60;99.90;;;;;;5022774;28;20029;-41
2020/12/05 00:36:08;;;;;;;50.88;25.95;;;1.60;99.90;;;;;;5017935;28;20401;-41
2020/12/05 00:38:35;;;;;;;53.80;27.15;;;1.50;99.90;;;;;;5014992;28;20088;-40
2020/12/05 00:41:04;;;;;;;64.05;31.60;;;1.40;99.90;;;;;;5016697;28;20918;-40
2020/12/05 00:43:30;;;;;;;59.20;32.08;;;1.40;99.90;;;;;;5018297;28;20396;-43
2020/12/05 00:45:56;;;;;;;58.72;30.33;;;1.30;99.90;;;;;;5017993;28;20033;-40
2020/12/05 00:48:22;;;;;;;66.65;34.13;;;1.30;99.90;;;;;;5019049;28;20041;-41
2020/12/05 00:50:47;;;;;;;58.80;29.02;;;1.20;99.90;;;;;;5016133;28;20041;-41
2020/12/05 00:53:12;;;;;;;61.70;31.27;;;1.10;99.90;;;;;;5023620;28;20037;-40
2020/12/05 00:55:38;;;;;;;55.70;29.77;;;1.10;99.90;;;;;;5016503;28;20022;-42
2020/12/05 00:58:03;;;;;;;62.10;31.35;;;1.00;99.90;;;;;;5015711;28;20029;-41
2020/12/05 01:00:29;;;;;;;62.38;30.92;;;0.90;99.90;;;;;;5018931;28;20420;-40
2020/12/05 01:02:54;;;;;;;52.72;25.27;;;0.90;99.90;;;;;;5018236;28;20029;-42
2020/12/05 01:05:20;;;;;;;65.30;32.53;;;0.80;99.90;;;;;;5013309;28;20040;-41
2020/12/05 01:07:45;;;;;;;48.72;25.42;;;0.70;99.90;;;;;;5016975;28;20870;-42
2020/12/05 01:10:11;;;;;;;49.83;24.30;;;0.70;99.90;;;;;;5014544;28;20203;-40
2020/12/05 01:12:36;;;;;;;57.53;28.02;;;0.70;99.90;;;;;;5015675;28;20031;-43
2020/12/05 01:15:02;;;;;;;48.08;23.23;;;0.70;99.90;;;;;;5015687;28;20029;-40
2020/12/05 01:17:35;;;;;;;42.78;22.25;;;0.70;99.90;;;;;;5016455;28;20157;-41
2020/12/05 01:20:04;;;;;;;42.83;21.20;;;0.60;99.90;;;;;;5014443;28;20037;-42
2020/12/05 01:22:29;;;;;;;46.50;23.00;;;0.70;99.90;;;;;;5017909;28;20400;-40
2020/12/05 01:24:55;;;;;;;46.08;22.48;;;0.70;99.90;;;;;;5024037;28;20025;-43
2020/12/05 01:27:20;;;;;;;47.88;24.17;;;0.70;99.90;;;;;;5021505;28;20033;-43
2020/12/05 01:29:46;;;;;;;60.15;28.55;;;0.60;99.90;;;;;;5020621;28;20041;-40
2020/12/05 01:32:12;;;;;;;54.50;24.48;;;0.60;99.90;;;;;;5027264;28;20480;-40
2020/12/05 01:34:37;;;;;;;52.70;26.10;;;0.70;99.90;;;;;;5014940;28;20057;-41
2020/12/05 01:37:03;;;;;;;51.47;27.85;;;0.70;99.90;;;;;;5018460;28;20030;-41
2020/12/05 01:39:29;;;;;;;47.97;24.85;;;0.70;99.90;;;;;;5017927;28;20360;-40
2020/12/05 01:41:54;;;;;;;50.40;24.40;;;0.60;99.90;;;;;;5026925;28;20037;-42
2020/12/05 01:44:20;;;;;;;51.38;26.63;;;0.60;99.90;;;;;;5027412;28;20041;-42
2020/12/05 01:46:47;;;;;;;49.33;24.73;;;0.60;99.90;;;;;;5023138;28;20064;-43
2020/12/05 01:49:17;;;;;;;48.05;24.60;;;0.60;99.90;;;;;;5017190;28;20121;-38
2020/12/05 01:51:44;;;;;;;50.25;24.10;;;0.60;99.90;;;;;;5017259;28;20065;-39
2020/12/05 01:54:10;;;;;;;44.45;21.55;;;0.60;99.90;;;;;;5019233;28;20025;-37
2020/12/05 01:56:36;;;;;;;43.45;20.98;;;0.60;99.90;;;;;;5020917;28;20026;-39
2020/12/05 01:59:01;;;;;;;53.05;27.73;;;0.50;99.90;;;;;;5016995;28;20520;-38
2020/12/05 02:01:28;;;;;;;49.20;25.10;;;0.40;99.90;;;;;;5023766;28;20029;-38
2020/12/05 02:03:57;;;;;;;55.75;26.48;;;0.40;99.90;;;;;;5020265;28;20021;-38
2020/12/05 02:06:45;;;;;;;49.50;23.20;;;0.40;99.90;;;;;;5025394;28;20040;-39
2020/12/05 02:09:18;;;;;;;51.58;23.42;;;0.30;99.90;;;;;;5021318;28;20067;-38
2020/12/05 02:11:55;;;;;;;42.60;20.45;;;0.20;99.90;;;;;;5021356;28;20018;-39
2020/12/05 02:14:23;;;;;;;50.15;23.38;;;0.10;99.90;;;;;;5022842;28;20064;-40
2020/12/05 02:16:52;;;;;;;51.00;25.17;;;0.00;99.90;;;;;;5028464;28;20435;-39
2020/12/05 02:19:22;;;;;;;55.17;26.75;;;0.00;99.90;;;;;;5021379;28;20036;-41
2020/12/05 02:21:52;;;;;;;52.10;24.58;;;0.00;99.90;;;;;;5013260;28;20535;-41
2020/12/05 02:24:18;;;;;;;53.47;25.58;;;0.00;99.90;;;;;;5024090;28;20039;-40
2020/12/05 02:26:44;;;;;;;67.18;30.98;;;0.00;99.90;;;;;;5022692;28;20120;-39
2020/12/05 02:29:10;;;;;;;63.95;30.42;;;0.00;99.90;;;;;;5021306;28;20021;-39
2020/12/05 02:31:37;;;;;;;57.40;26.75;;;0.10;99.90;;;;;;5026066;28;20080;-39
2020/12/05 02:34:04;;;;;;;51.90;25.40;;;0.10;99.90;;;;;;5020952;28;20056;-38
2020/12/05 02:36:35;;;;;;;54.97;24.67;;;0.10;99.90;;;;;;5023735;28;20473;-40
2020/12/05 02:39:10;;;;;;;61.78;31.75;;;0.10;99.90;;;;;;5016332;28;20068;-38
2020/12/05 02:41:40;;;;;;;58.15;26.73;;;0.10;99.90;;;;;;5022397;28;20124;-41
2020/12/05 02:44:06;;;;;;;57.17;26.73;;;0.30;99.90;;;;;;5007887;28;20030;-38
2020/12/05 02:46:32;;;;;;;52.90;27.35;;;0.30;99.90;;;;;;5020895;28;20135;-39
2020/12/05 02:48:57;;;;;;;51.80;24.73;;;0.30;99.90;;;;;;5018821;28;20030;-39
2020/12/05 02:51:23;;;;;;;54.25;24.83;;;0.30;99.90;;;;;;5021566;28;20464;-38
2020/12/05 02:53:49;;;;;;;46.80;21.15;;;0.30;99.90;;;;;;5028130;28;20061;-38
2020/12/05 02:56:16;;;;;;;60.55;27.05;;;0.40;99.90;;;;;;5023553;28;20136;-43
2020/12/05 02:58:42;;;;;;;57.78;29.35;;;0.30;99.90;;;;;;5025408;28;20061;-40
2020/12/05 03:01:07;;;;;;;54.58;27.20;;;0.30;99.90;;;;;;5026435;28;20041;-38
2020/12/05 03:03:33;;;;;;;54.05;27.85;;;0.30;99.90;;;;;;5018210;28;20037;-38
2020/12/05 03:05:58;;;;;;;56.88;25.33;;;0.30;99.90;;;;;;5023166;28;20393;-41
2020/12/05 03:08:24;;;;;;;49.17;25.02;;;0.30;99.90;;;;;;5025013;28;20040;-39
2020/12/05 03:10:50;;;;;;;53.78;27.05;;;0.30;99.90;;;;;;5029703;28;20029;-39
2020/12/05 03:13:15;;;;;;;52.40;25.45;;;0.30;99.90;;;;;;5023184;28;20342;-38
2020/12/05 03:15:41;;;;;;;42.05;20.55;;;0.30;99.90;;;;;;5025250;28;20025;-38
2020/12/05 03:18:07;;;;;;;52.08;23.83;;;0.20;99.90;;;;;;5028531;28;20068;-40
2020/12/05 03:20:32;;;;;;;46.38;22.00;;;0.20;99.90;;;;;;5020499;28;20117;-38
2020/12/05 03:22:58;;;;;;;52.63;25.05;;;0.20;99.90;;;;;;5026737;28;20120;-38
2020/12/05 03:25:23;;;;;;;43.30;21.23;;;0.10;99.90;;;;;;5022940;28;20038;-41
2020/12/05 03:27:48;;;;;;;57.05;26.60;;;0.00;99.90;;;;;;5016722;28;20484;-38
2020/12/05 03:30:14;;;;;;;53.33;26.23;;;-0.10;99.90;;;;;;5026408;28;20061;-38
2020/12/05 03:32:41;;;;;;;51.35;22.77;;;-0.10;99.90;;;;;;5017548;28;20500;-38
2020/12/05 03:35:07;;;;;;;47.65;22.75;;;-0.20;99.90;;;;;;5023572;28;20050;-38
2020/12/05 03:37:32;;;;;;;44.42;21.10;;;-0.20;99.90;;;;;;5026350;28;20084;-39
2020/12/05 03:39:58;;;;;;;51.13;22.67;;;-0.20;99.90;;;;;;5017638;28;20584;-38
2020/12/05 03:42:23;;;;;;;49.50;20.45;;;-0.20;99.90;;;;;;5019697;28;20075;-40
2020/12/05 03:44:49;;;;;;;48.95;21.92;;;-0.30;99.90;;;;;;5019067;28;20031;-38
2020/12/05 03:47:15;;;;;;;43.67;19.50;;;-0.40;99.90;;;;;;5022038;28;20121;-39
2020/12/05 03:49:40;;;;;;;42.90;20.58;;;-0.40;99.90;;;;;;5021085;28;20034;-39
2020/12/05 03:52:06;;;;;;;41.42;20.15;;;-0.40;99.90;;;;;;5025998;28;20030;-38
2020/12/05 03:54:32;;;;;;;51.13;23.80;;;-0.30;99.90;;;;;;5019667;28;20384;-39
2020/12/05 03:56:58;;;;;;;50.28;22.80;;;-0.30;99.90;;;;;;5017037;28;20604;-39
2020/12/05 03:59:23;;;;;;;52.00;24.15;;;-0.30;99.90;;;;;;5016707;28;20029;-39
2020/12/05 04:01:49;;;;;;;52.22;24.90;;;-0.30;99.90;;;;;;5018339;28;20591;-41
2020/12/05 04:04:14;;;;;;;60.08;28.42;;;-0.20;99.90;;;;;;5018426;28;20044;-41
2020/12/05 04:06:40;;;;;;;50.45;23.40;;;-0.10;99.90;;;;;;5020974;28;20071;-39
2020/12/05 04:09:06;;;;;;;48.13;24.27;;;-0.10;99.90;;;;;;5017810;28;20021;-39
2020/12/05 04:11:31;;;;;;;51.53;25.70;;;0.00;99.90;;;;;;5013988;28;20104;-39
2020/12/05 04:13:57;;;;;;;50.47;24.25;;;0.00;99.90;;;;;;5018990;28;20061;-38
2020/12/05 04:16:22;;;;;;;62.67;30.25;;;0.10;99.90;;;;;;5018580;28;20052;-39
2020/12/05 04:18:48;;;;;;;61.85;32.10;;;0.10;99.90;;;;;;5019167;28;20033;-41
2020/12/05 04:21:14;;;;;;;67.55;32.97;;;0.20;99.90;;;;;;5020362;28;20393;-39
2020/12/05 04:23:39;;;;;;;65.47;32.35;;;0.20;99.90;;;;;;5027418;28;20048;-40
2020/12/05 04:26:04;;;;;;;54.75;26.75;;;0.30;99.90;;;;;;5016074;28;20084;-38
2020/12/05 04:28:30;;;;;;;59.95;30.65;;;0.30;99.90;;;;;;5024614;28;20071;-39
2020/12/05 04:30:56;;;;;;;58.30;27.65;;;0.40;99.90;;;;;;5018868;28;20315;-39
2020/12/05 04:33:21;;;;;;;51.60;25.67;;;0.40;99.90;;;;;;5018060;28;20026;-39
2020/12/05 04:35:47;;;;;;;53.08;25.60;;;0.40;99.90;;;;;;5022671;28;20022;-38
2020/12/05 04:38:12;;;;;;;59.17;30.02;;;0.40;99.90;;;;;;5028412;28;20036;-38
2020/12/05 04:40:38;;;;;;;56.15;27.88;;;0.40;99.90;;;;;;5024430;28;20061;-39
2020/12/05 04:43:03;;;;;;;55.58;26.65;;;0.50;99.90;;;;;;5025900;28;20536;-39
2020/12/05 04:45:30;;;;;;;52.95;26.17;;;0.50;99.90;;;;;;5024694;28;20113;-38
2020/12/05 04:47:56;;;;;;;53.75;28.25;;;0.60;99.90;;;;;;5024205;28;20112;-38
2020/12/05 04:50:24;;;;;;;58.20;29.25;;;0.60;99.90;;;;;;5020354;28;20029;-38
2020/12/05 04:52:52;;;;;;;50.88;26.02;;;0.70;99.90;;;;;;5016166;28;20049;-38
2020/12/05 04:55:23;;;;;;;51.83;25.80;;;0.80;99.90;;;;;;5018122;28;20051;-39
2020/12/05 04:57:57;;;;;;;52.15;27.92;;;0.80;99.90;;;;;;5023101;28;20059;-39
2020/12/05 05:00:24;;;;;;;42.42;23.27;;;0.80;99.90;;;;;;5014050;28;20029;-38
2020/12/05 05:02:51;;;;;;;57.13;29.10;;;0.90;99.90;;;;;;5021065;28;20080;-39
2020/12/05 05:05:17;;;;;;;61.40;28.27;;;1.00;99.90;;;;;;5020792;28;20032;-38
2020/12/05 05:07:54;;;;;;;41.85;20.83;;;1.10;99.90;;;;;;5019478;28;20029;-39
2020/12/05 05:10:24;;;;;;;39.85;21.45;;;1.20;99.90;;;;;;5016045;28;20543;-39
2020/12/05 05:12:51;;;;;;;39.67;22.35;;;1.20;99.90;;;;;;5017838;28;20040;-39
2020/12/05 05:15:28;;;;;;;44.08;22.52;;;1.30;99.90;;;;;;5016432;28;20026;-39
2020/12/05 05:18:01;;;;;;;45.28;23.00;;;1.30;99.90;;;;;;5019593;28;20026;-38
2020/12/05 05:20:29;;;;;;;39.88;21.58;;;1.40;99.90;;;;;;5019363;28;20511;-38
2020/12/05 05:23:30;;;;;;;38.08;20.42;;;1.40;99.90;;;;;;5018815;28;20037;-41
2020/12/05 05:26:03;;;;;;;47.35;23.02;;;1.40;99.90;;;;;;4985817;28;20509;-41
2020/12/05 05:28:36;;;;;;;33.65;18.63;;;1.40;99.90;;;;;;5014086;28;20124;-39
2020/12/05 05:33:47;;;;;;;39.15;19.58;;;1.40;99.90;;;;;;5015930;28;20045;-38
2020/12/05 05:36:25;;;;;;;34.28;18.02;;;1.40;99.90;;;;;;5014310;28;20450;-39
2020/12/05 05:39:06;;;;;;;33.50;18.40;;;1.40;99.90;;;;;;5015031;28;20025;-38
2020/12/05 05:41:35;;;;;;;35.95;19.48;;;1.40;99.90;;;;;;5021069;28;20037;-38
2020/12/05 05:44:11;;;;;;;41.42;20.70;;;1.40;99.90;;;;;;5021885;28;20034;-38
2020/12/05 05:46:42;;;;;;;32.95;16.85;;;1.30;99.90;;;;;;5021300;28;20088;-40
2020/12/05 05:49:12;;;;;;;33.63;18.42;;;1.30;99.90;;;;;;5014408;28;20038;-40
2020/12/05 05:51:49;;;;;;;33.70;16.27;;;1.30;99.90;;;;;;5027926;28;20033;-38
2020/12/05 05:54:29;;;;;;;31.52;15.63;;;1.40;99.90;;;;;;5026630;28;20377;-38
2020/12/05 05:57:13;;;;;;;36.55;19.90;;;1.30;99.90;;;;;;5026491;28;20041;-39
2020/12/05 05:59:40;;;;;;;38.72;16.98;;;1.30;99.90;;;;;;5023226;28;20034;-39
2020/12/05 06:02:08;;;;;;;34.75;18.65;;;1.30;99.90;;;;;;5024940;28;20033;-39
2020/12/05 06:04:39;;;;;;;36.78;18.02;;;1.20;99.90;;;;;;5030090;28;20507;-40
2020/12/05 06:07:09;;;;;;;35.25;16.55;;;1.20;99.90;;;;;;5016603;28;20112;-38
2020/12/05 06:09:54;;;;;;;30.77;16.58;;;1.20;99.90;;;;;;5018070;28;20080;-40
2020/12/05 06:12:25;;;;;;;32.75;16.48;;;1.10;99.90;;;;;;5026244;28;20025;-41
2020/12/05 06:14:54;;;;;;;28.67;17.95;;;1.10;99.90;;;;;;5039944;28;20037;-39
2020/12/05 06:17:21;;;;;;;35.95;18.52;;;1.10;99.90;;;;;;5021794;28;20036;-40
2020/12/05 06:19:49;;;;;;;34.88;18.85;;;1.10;99.90;;;;;;5020036;28;20038;-38
2020/12/05 06:22:43;;;;;;;31.02;16.48;;;1.10;99.90;;;;;;5021716;28;20042;-39
2020/12/05 06:25:15;;;;;;;30.98;16.30;;;1.20;99.90;;;;;;5025536;28;20046;-38
2020/12/05 06:27:46;;;;;;;32.65;17.50;;;1.20;99.90;;;;;;5019997;28;20049;-39
2020/12/05 06:30:12;;;;;;;29.08;15.63;;;1.20;99.90;;;;;;5023914;28;20025;-41
2020/12/05 06:32:42;;;;;;;27.23;14.48;;;1.30;99.90;;;;;;5031799;28;20060;-38
2020/12/05 06:35:31;;;;;;;25.98;14.23;;;1.30;99.90;;;;;;5024536;28;20029;-39
2020/12/05 06:37:56;;;;;;;31.15;15.18;;;1.30;99.90;;;;;;5019664;28;20054;-38
2020/12/05 06:40:23;;;;;;;32.78;16.00;;;1.30;99.90;;;;;;5021748;28;20493;-39
2020/12/05 06:42:52;;;;;;;26.55;14.45;;;1.30;99.90;;;;;;5023327;28;20108;-38
2020/12/05 06:45:29;;;;;;;26.38;14.40;;;1.30;99.90;;;;;;5024358;28;20177;-39
2020/12/05 06:48:18;;;;;;;30.10;16.52;;;1.30;99.90;;;;;;5022443;28;20026;-38
2020/12/05 06:50:45;;;;;;;33.38;18.45;;;1.40;99.90;;;;;;5021212;28;20053;-39
2020/12/05 06:53:19;;;;;;;27.95;15.68;;;1.40;99.90;;;;;;5020960;28;20022;-38
2020/12/05 06:55:48;;;;;;;27.52;15.82;;;1.40;99.90;;;;;;5019045;28;20480;-39
2020/12/05 06:58:13;;;;;;;25.98;14.77;;;1.50;99.90;;;;;;5018920;28;20393;-39
2020/12/05 07:00:40;;;;;;;30.48;16.10;;;1.50;99.90;;;;;;5019032;28;20041;-40
2020/12/05 07:03:09;;;;;;;29.60;15.38;;;1.60;99.90;;;;;;5020519;28;20423;-39
2020/12/05 07:05:45;;;;;;;29.77;16.55;;;1.50;99.90;;;;;;5021608;28;20040;-39
2020/12/05 07:08:21;;;;;;;25.23;15.20;;;1.60;99.90;;;;;;5022094;28;20100;-38
2020/12/05 07:10:57;;;;;;;25.23;14.43;;;1.60;99.90;;;;;;5019726;28;20056;-39
2020/12/05 07:13:26;;;;;;;29.60;15.75;;;1.70;99.90;;;;;;5019394;28;20018;-39
2020/12/05 07:16:08;;;;;;;28.63;16.38;;;1.80;99.90;;;;;;5018244;28;20032;-38
2020/12/05 07:18:36;;;;;;;27.23;14.70;;;1.80;99.90;;;;;;5016964;28;20032;-41
2020/12/05 07:21:05;;;;;;;25.42;15.63;;;1.90;99.90;;;;;;5028193;28;20047;-38
2020/12/05 07:23:30;;;;;;;25.60;15.25;;;2.00;99.90;;;;;;5027129;28;20088;-39
2020/12/05 07:25:59;;;;;;;28.63;16.02;;;2.10;99.90;;;;;;5023793;28;20061;-40
2020/12/05 07:28:25;;;;;;;29.08;15.75;;;2.20;99.90;;;;;;5027216;28;20108;-40
2020/12/05 07:30:51;;;;;;;29.98;17.10;;;2.30;99.90;;;;;;5030255;28;20028;-40
2020/12/05 07:33:19;;;;;;;30.38;18.52;;;2.40;99.90;;;;;;5025795;28;20034;-39
2020/12/05 07:35:44;;;;;;;35.85;17.38;;;2.50;99.90;;;;;;5028065;28;20393;-38
2020/12/05 07:38:14;;;;;;;27.65;17.05;;;2.60;99.90;;;;;;5023611;28;20029;-38
2020/12/05 07:40:40;;;;;;;28.63;16.10;;;2.70;99.90;;;;;;5018411;28;20417;-39
2020/12/05 07:43:15;;;;;;;27.35;15.73;;;2.80;99.90;;;;;;5024180;28;20036;-41
2020/12/05 07:45:41;;;;;;;26.35;15.50;;;2.90;99.90;;;;;;5024759;28;20389;-41
2020/12/05 07:48:14;;;;;;;26.52;15.45;;;2.90;99.90;;;;;;5020743;28;20033;-41
2020/12/05 07:50:40;;;;;;;26.83;15.73;;;3.10;99.90;;;;;;5014868;28;20354;-38
2020/12/05 07:53:22;;;;;;;28.50;16.50;;;3.20;99.90;;;;;;5022379;28;20033;-39
2020/12/05 07:55:49;;;;;;;26.63;15.75;;;3.30;99.90;;;;;;5022741;28;20361;-39
2020/12/05 07:58:15;;;;;;;23.35;13.73;;;3.50;99.90;;;;;;5015764;28;20489;-42
2020/12/05 08:00:41;;;;;;;23.05;12.95;;;3.50;99.90;;;;;;5022625;28;20061;-41
2020/12/05 08:03:35;;;;;;;25.85;14.77;;;3.50;99.90;;;;;;5011856;28;20045;-39
2020/12/05 08:06:20;;;;;;;24.77;13.63;;;3.60;99.90;;;;;;5017155;28;20029;-38
2020/12/05 08:08:52;;;;;;;22.02;12.45;;;3.60;99.90;;;;;;5023746;28;20028;-41
2020/12/05 08:11:18;;;;;;;29.30;13.95;;;3.60;99.90;;;;;;5020762;28;20026;-41
2020/12/05 08:13:47;;;;;;;23.98;13.63;;;3.70;99.90;;;;;;5022556;28;20124;-40
2020/12/05 08:16:16;;;;;;;24.60;14.05;;;3.70;99.90;;;;;;5017757;28;20049;-39
2020/12/05 08:18:42;;;;;;;27.10;14.32;;;3.80;99.90;;;;;;5018554;28;20022;-39
2020/12/05 08:21:08;;;;;;;23.38;15.00;;;3.80;99.90;;;;;;5018728;28;20034;-39
2020/12/05 08:23:37;;;;;;;26.88;15.65;;;3.90;99.90;;;;;;5019018;28;20112;-42
2020/12/05 08:26:06;;;;;;;18.75;11.93;;;4.00;99.90;;;;;;5017419;28;20029;-41
2020/12/05 08:28:46;;;;;;;25.33;15.35;;;4.00;99.90;;;;;;5022968;28;20049;-39
2020/12/05 08:31:13;;;;;;;21.70;12.25;;;4.10;99.90;;;;;;5017556;28;20049;-39
2020/12/05 08:33:42;;;;;;;20.63;11.85;;;4.10;99.90;;;;;;5019856;28;20023;-40
2020/12/05 08:36:31;;;;;;;25.80;12.35;;;4.30;99.90;;;;;;5021205;28;20034;-41
2020/12/05 08:39:03;;;;;;;20.08;10.95;;;4.50;99.90;;;;;;5017477;28;20026;-39
2020/12/05 08:41:29;;;;;;;22.65;14.43;;;4.80;99.90;;;;;;5015710;28;20057;-39
2020/12/05 08:43:55;;;;;;;21.38;13.88;;;5.00;99.90;;;;;;5018785;28;20033;-40
2020/12/05 08:46:22;;;;;;;18.33;11.85;;;5.20;99.90;;;;;;5017396;28;20507;-40
2020/12/05 08:48:49;;;;;;;28.15;15.20;;;5.20;99.90;;;;;;5017888;28;20056;-41
2020/12/05 08:51:25;;;;;;;28.13;16.02;;;5.20;99.90;;;;;;5024324;28;20029;-43
2020/12/05 08:54:04;;;;;;;28.38;18.40;;;5.10;99.90;;;;;;5023043;28;20105;-39
2020/12/05 08:56:30;;;;;;;20.25;11.75;;;5.10;99.90;;;;;;5028541;28;20062;-41
2020/12/05 08:58:56;;;;;;;20.67;12.88;;;5.10;99.90;;;;;;5022245;28;20131;-38
2020/12/05 09:01:21;;;;;;;22.15;11.02;;;5.10;99.90;;;;;;5027316;28;20052;-39
2020/12/05 09:03:47;;;;;;;20.73;12.02;;;5.00;99.90;;;;;;5016990;28;20029;-39
2020/12/05 09:06:21;;;;;;;19.48;10.40;;;4.90;99.90;;;;;;5018111;28;20052;-39
2020/12/05 09:08:46;;;;;;;27.70;11.18;;;4.80;99.90;;;;;;5019177;28;20029;-38
2020/12/05 09:11:20;;;;;;;38.40;13.95;;;4.80;99.90;;;;;;5023654;28;20030;-38
2020/12/05 09:13:46;;;;;;;28.92;14.77;;;4.90;99.90;;;;;;5022555;28;20026;-39
2020/12/05 09:16:11;;;;;;;25.63;12.60;;;4.90;99.90;;;;;;5016053;28;20116;-39
2020/12/05 09:18:45;;;;;;;20.77;10.65;;;5.10;99.90;;;;;;5013041;28;20047;-38
2020/12/05 09:21:20;;;;;;;23.92;11.27;;;5.30;99.90;;;;;;5027672;28;20477;-39
2020/12/05 09:24:06;;;;;;;17.38;10.40;;;5.60;99.90;;;;;;5020246;28;20075;-43
2020/12/05 09:26:33;;;;;;;24.45;10.85;;;6.10;99.90;;;;;;5020465;28;20237;-38
2020/12/05 09:28:59;;;;;;;26.30;11.82;;;6.50;99.90;;;;;;5022428;28;20022;-41
2020/12/05 09:31:25;;;;;;;23.58;12.68;;;6.90;99.90;;;;;;5016218;28;20389;-39
2020/12/05 09:33:50;;;;;;;26.23;14.43;;;7.20;99.90;;;;;;5018125;28;20026;-38
2020/12/05 09:36:16;;;;;;;20.27;10.48;;;7.40;99.90;;;;;;5018844;28;20030;-40
2020/12/05 09:38:42;;;;;;;20.70;12.45;;;7.50;99.90;;;;;;5021471;28;20030;-38
2020/12/05 09:41:07;;;;;;;19.00;10.48;;;7.60;99.90;;;;;;5025863;28;20109;-39
2020/12/05 09:43:33;;;;;;;16.80;10.55;;;7.70;99.90;;;;;;5023957;28;20017;-39
2020/12/05 09:45:58;;;;;;;16.70;10.27;;;7.70;99.70;;;;;;5022078;28;20449;-39
2020/12/05 09:48:23;;;;;;;14.60;9.88;;;7.70;99.50;;;;;;5018080;28;20026;-39
2020/12/05 09:50:49;;;;;;;15.70;9.85;;;7.80;98.90;;;;;;5020630;28;20041;-41
2020/12/05 09:53:15;;;;;;;14.65;9.40;;;7.80;98.50;;;;;;5014986;28;20323;-41
2020/12/05 09:55:40;;;;;;;16.08;9.88;;;7.80;98.60;;;;;;5020662;28;20653;-39
2020/12/05 09:58:06;;;;;;;30.90;11.57;;;7.80;98.60;;;;;;5016879;28;20113;-38
2020/12/05 10:00:31;;;;;;;18.10;8.55;;;7.80;98.80;;;;;;5011362;28;20026;-39
2020/12/05 10:02:57;;;;;;;21.75;11.02;;;7.70;99.00;;;;;;5020812;28;20052;-39
2020/12/05 10:05:23;;;;;;;18.73;10.38;;;7.70;98.20;;;;;;5016639;28;20030;-39
2020/12/05 10:07:48;;;;;;;16.50;10.15;;;7.70;98.10;;;;;;5013836;28;20045;-41
2020/12/05 10:10:14;;;;;;;15.68;9.63;;;7.70;97.90;;;;;;5016799;28;20069;-41
2020/12/05 10:12:46;;;;;;;17.48;10.55;;;7.70;97.60;;;;;;5015985;28;20060;-39
2020/12/05 10:15:14;;;;;;;18.33;10.98;;;7.80;96.40;;;;;;5016426;28;20053;-41
2020/12/05 10:17:41;;;;;;;16.75;11.25;;;7.80;95.90;;;;;;5019853;28;20476;-39
2020/12/05 10:20:07;;;;;;;18.40;11.27;;;7.80;95.40;;;;;;5034111;28;20377;-38
2020/12/05 10:22:33;;;;;;;17.52;10.70;;;7.70;95.70;;;;;;5019557;28;20433;-40
2020/12/05 10:24:58;;;;;;;19.33;12.27;;;7.80;96.00;;;;;;5030180;28;20141;-38
2020/12/05 10:27:24;;;;;;;21.40;12.70;;;7.80;95.30;;;;;;5027736;28;20033;-39
2020/12/05 10:29:49;;;;;;;18.17;10.48;;;8.00;94.50;;;;;;5029474;28;20178;-41
2020/12/05 10:32:15;;;;;;;17.98;10.75;;;8.10;94.40;;;;;;5028240;28;20033;-44
2020/12/05 10:34:41;;;;;;;14.93;9.70;;;8.10;94.30;;;;;;5018847;28;20101;-39
2020/12/05 10:37:08;;;;;;;16.42;10.07;;;8.20;94.20;;;;;;5022637;28;20029;-42
2020/12/05 10:39:33;;;;;;;17.70;11.38;;;8.20;94.20;;;;;;5022863;28;20401;-41
2020/12/05 10:41:59;;;;;;;13.55;8.50;;;8.20;93.80;;;;;;5026078;28;20025;-39
2020/12/05 10:44:25;;;;;;;17.42;10.50;;;8.20;94.00;;;;;;5025701;28;20224;-38
2020/12/05 10:46:50;;;;;;;15.25;9.10;;;8.10;94.30;;;;;;5028647;28;20572;-40
2020/12/05 10:49:17;;;;;;;14.18;9.45;;;8.10;94.20;;;;;;5027908;28;20056;-40
2020/12/05 10:51:43;;;;;;;25.13;10.55;;;8.10;94.30;;;;;;5027086;28;20026;-39
2020/12/05 10:54:09;;;;;;;15.00;9.70;;;8.10;94.10;;;;;;5022291;28;20491;-42
2020/12/05 10:56:37;;;;;;;16.63;8.93;;;8.20;93.30;;;;;;5025916;28;20038;-43
2020/12/05 10:59:03;;;;;;;17.38;9.98;;;8.30;93.50;;;;;;5022235;28;20503;-46
2020/12/05 11:01:29;;;;;;;17.35;10.75;;;8.30;93.10;;;;;;5023063;28;20034;-39
2020/12/05 11:03:54;;;;;;;15.55;9.65;;;8.40;92.10;;;;;;5024109;28;20037;-39
2020/12/05 11:06:22;;;;;;;16.90;9.18;;;8.40;91.70;;;;;;5023014;28;20037;-41
2020/12/05 11:08:47;;;;;;;30.42;12.18;;;8.40;92.00;;;;;;5018674;28;20034;-39
2020/12/05 11:11:13;;;;;;;13.43;8.93;;;8.40;91.50;;;;;;5020441;28;20109;-41
2020/12/05 11:13:39;;;;;;;22.13;11.50;;;8.50;91.00;;;;;;5022146;28;20105;-41
2020/12/05 11:16:04;;;;;;;14.13;8.77;;;8.50;90.80;;;;;;5020572;28;20079;-39
2020/12/05 11:18:30;;;;;;;17.85;10.57;;;8.40;90.60;;;;;;5026460;28;20029;-39
2020/12/05 11:20:55;;;;;;;14.13;9.43;;;8.30;90.60;;;;;;5020562;28;20437;-40
2020/12/05 11:23:20;;;;;;;18.55;9.52;;;8.30;90.60;;;;;;5016817;28;20048;-40
2020/12/05 11:25:46;;;;;;;19.70;10.93;;;8.20;90.90;;;;;;5020129;28;20612;-40
2020/12/05 11:28:11;;;;;;;11.65;7.90;;;8.20;90.40;;;;;;5019497;28;20038;-38
2020/12/05 11:30:37;;;;;;;17.98;10.23;;;8.10;90.80;;;;;;5019973;28;20041;-39
2020/12/05 11:33:02;;;;;;;13.10;8.10;;;8.10;90.90;;;;;;5020181;28;20053;-41
2020/12/05 11:35:28;;;;;;;17.58;10.32;;;8.10;90.90;;;;;;5019212;28;20092;-43
2020/12/05 11:37:53;;;;;;;18.10;11.05;;;8.00;90.50;;;;;;5025801;28;20025;-41
2020/12/05 11:40:19;;;;;;;18.65;10.80;;;8.00;90.20;;;;;;5017346;28;20121;-39
2020/12/05 11:42:44;;;;;;;15.85;7.95;;;8.00;89.50;;;;;;5023412;28;20523;-39
2020/12/05 11:45:10;;;;;;;15.52;8.65;;;8.00;90.00;;;;;;5019138;28;20037;-39
2020/12/05 11:47:35;;;;;;;16.25;8.27;;;7.90;90.00;;;;;;5015146;28;20054;-39
2020/12/05 11:50:01;;;;;;;21.42;10.73;;;7.90;90.10;;;;;;5020326;28;20045;-41
2020/12/05 11:52:27;;;;;;;13.20;8.40;;;7.90;87.60;;;;;;5027982;28;20037;-43
2020/12/05 11:54:52;;;;;;;14.73;9.32;;;8.00;88.70;;;;;;5023712;28;20025;-40
2020/12/05 11:57:18;;;;;;;13.35;8.23;;;8.00;87.40;;;;;;5020167;28;20841;-39
2020/12/05 11:59:44;;;;;;;18.90;9.50;;;8.00;88.20;;;;;;5024838;28;20034;-38
2020/12/05 12:02:10;;;;;;;21.60;9.82;;;7.90;88.10;;;;;;5022482;28;20030;-41
2020/12/05 12:04:39;;;;;;;14.85;8.60;;;7.90;89.00;;;;;;5021603;28;20160;-39
2020/12/05 12:07:04;;;;;;;21.45;12.18;;;7.80;89.20;;;;;;5022832;28;20030;-38
2020/12/05 12:09:30;;;;;;;15.68;8.73;;;7.80;87.10;;;;;;5015660;28;20033;-38
2020/12/05 12:11:55;;;;;;;14.85;8.60;;;7.80;86.90;;;;;;5020434;28;20028;-38
2020/12/05 12:14:21;;;;;;;11.57;6.88;;;7.70;87.80;;;;;;5020783;28;20096;-39
2020/12/05 12:16:47;;;;;;;11.57;6.95;;;7.60;88.70;;;;;;5017937;28;20388;-38
2020/12/05 12:19:13;;;;;;;14.98;8.52;;;7.60;88.90;;;;;;5026026;28;20028;-41
2020/12/05 12:21:39;;;;;;;13.13;8.07;;;7.60;89.20;;;;;;5023114;28;20041;-40
2020/12/05 12:24:04;;;;;;;11.32;7.45;;;7.60;88.90;;;;;;5020114;28;20500;-42
2020/12/05 12:26:30;;;;;;;13.13;6.85;;;7.60;89.30;;;;;;5025201;28;20120;-40
2020/12/05 12:28:56;;;;;;;12.38;7.75;;;7.60;90.00;;;;;;5018793;28;20022;-40
2020/12/05 12:31:22;;;;;;;14.40;8.27;;;7.60;90.00;;;;;;5017741;28;20531;-42
2020/12/05 12:33:47;;;;;;;15.98;9.18;;;7.60;89.50;;;;;;5021707;28;20025;-39
2020/12/05 12:36:20;;;;;;;17.73;8.48;;;7.70;89.60;;;;;;5020446;28;20471;-44
2020/12/05 12:38:46;;;;;;;17.15;9.55;;;7.70;89.00;;;;;;5021500;28;20030;-41
2020/12/05 12:41:15;;;;;;;18.35;10.25;;;7.70;89.40;;;;;;5022177;28;20029;-42
2020/12/05 12:43:41;;;;;;;20.67;10.38;;;7.60;89.50;;;;;;5025472;28;20176;-43
2020/12/05 12:46:06;;;;;;;18.02;9.50;;;7.60;89.30;;;;;;5023664;28;20451;-39